createdAt,value
2023-05-19T00:00:21.869Z,10.91
2023-05-19T00:01:21.861Z,10.94
2023-05-19T00:02:21.897Z,10.89
2023-05-19T00:03:22.697Z,10.88
2023-05-19T00:04:21.820Z,10.89
2023-05-19T00:05:21.868Z,10.88
2023-05-19T00:06:21.873Z,10.89
2023-05-19T00:07:21.827Z,10.86
2023-05-19T00:08:21.778Z,10.85
2023-05-19T00:09:21.766Z,10.84
2023-05-19T00:10:21.768Z,10.82
2023-05-19T00:11:21.779Z,10.78
2023-05-19T00:12:21.775Z,10.79
2023-05-19T00:13:21.738Z,10.76
2023-05-19T00:14:21.710Z,10.73
2023-05-19T00:15:21.716Z,10.74
2023-05-19T00:16:21.784Z,10.74
2023-05-19T00:17:21.699Z,10.73
2023-05-19T00:18:21.677Z,10.73
2023-05-19T00:19:21.739Z,10.71
2023-05-19T00:20:22.056Z,10.74
2023-05-19T00:21:21.680Z,10.71
2023-05-19T00:22:21.624Z,10.67
2023-05-19T00:23:21.632Z,10.66
2023-05-19T00:24:21.614Z,10.70
2023-05-19T00:25:21.624Z,10.67
2023-05-19T00:26:21.590Z,10.67
2023-05-19T00:27:21.793Z,10.66
2023-05-19T00:28:21.565Z,10.64
2023-05-19T00:29:21.569Z,10.63
2023-05-19T00:30:21.562Z,10.64
2023-05-19T00:31:21.598Z,10.64
2023-05-19T00:32:21.534Z,10.63
2023-05-19T00:33:21.528Z,10.59
2023-05-19T00:34:21.510Z,10.59
2023-05-19T00:35:21.508Z,10.59
2023-05-19T00:36:21.485Z,10.61
2023-05-19T00:37:21.494Z,10.60
2023-05-19T00:38:21.473Z,10.60
2023-05-19T00:39:22.264Z,10.60
2023-05-19T00:40:21.441Z,10.63
2023-05-19T00:41:21.470Z,10.63
2023-05-19T00:42:21.457Z,10.61
2023-05-19T00:43:21.425Z,10.63
2023-05-19T00:44:21.410Z,10.63
2023-05-19T00:45:21.405Z,10.63
2023-05-19T00:46:21.401Z,10.64
2023-05-19T00:47:21.430Z,10.61
2023-05-19T00:48:21.369Z,10.61
2023-05-19T00:49:21.361Z,10.61
2023-05-19T00:50:21.369Z,10.59
2023-05-19T00:51:21.341Z,10.56
2023-05-19T00:52:23.282Z,10.56
2023-05-19T00:53:21.315Z,10.56
2023-05-19T00:54:21.301Z,10.53
2023-05-19T00:55:21.302Z,10.53
2023-05-19T00:56:21.291Z,10.51
2023-05-19T00:57:21.291Z,10.48
2023-05-19T00:58:21.264Z,10.45
2023-05-19T00:59:21.253Z,10.44
2023-05-19T01:00:21.233Z,10.41
2023-05-19T01:01:21.349Z,10.36
2023-05-19T01:02:21.319Z,10.33
2023-05-19T01:03:21.310Z,10.34
2023-05-19T01:04:21.195Z,10.33
2023-05-19T01:05:21.197Z,10.33
2023-05-19T01:06:21.213Z,10.33
2023-05-19T01:07:21.195Z,10.34
2023-05-19T01:08:21.175Z,10.34
2023-05-19T01:09:21.159Z,10.34
2023-05-19T01:10:21.138Z,10.36
2023-05-19T01:11:21.134Z,10.36
2023-05-19T01:12:21.149Z,10.36
2023-05-19T01:13:21.117Z,10.34
2023-05-19T01:14:21.095Z,10.34
2023-05-19T01:15:21.149Z,10.36
2023-05-19T01:16:21.123Z,10.34
2023-05-19T01:17:21.079Z,10.36
2023-05-19T01:18:21.071Z,10.34
2023-05-19T01:19:21.213Z,10.36
2023-05-19T01:20:21.034Z,10.36
2023-05-19T01:21:21.041Z,10.33
2023-05-19T01:22:21.015Z,10.36
2023-05-19T01:23:21.015Z,10.30
2023-05-19T01:24:21.545Z,10.33
2023-05-19T01:25:20.984Z,10.30
2023-05-19T01:26:20.998Z,10.29
2023-05-19T01:27:20.966Z,10.32
2023-05-19T01:28:20.962Z,10.29
2023-05-19T01:29:20.946Z,10.29
2023-05-19T01:30:20.928Z,10.30
2023-05-19T01:31:20.971Z,10.27
2023-05-19T01:32:20.961Z,10.26
2023-05-19T01:33:20.905Z,10.27
2023-05-19T01:34:20.895Z,10.27
2023-05-19T01:35:20.886Z,10.26
2023-05-19T01:36:20.880Z,10.23
2023-05-19T01:37:20.862Z,10.27
2023-05-19T01:38:20.867Z,10.26
2023-05-19T01:39:20.833Z,10.26
2023-05-19T01:40:20.835Z,10.23
2023-05-19T01:41:20.814Z,10.26
2023-05-19T01:42:20.951Z,10.25
2023-05-19T01:43:20.787Z,10.23
2023-05-19T01:44:20.794Z,10.25
2023-05-19T01:45:20.782Z,10.29
2023-05-19T01:46:21.212Z,10.27
2023-05-19T01:47:21.580Z,10.23
2023-05-19T01:48:20.771Z,10.25
2023-05-19T01:49:20.728Z,10.25
2023-05-19T01:50:20.841Z,10.23
2023-05-19T01:51:20.818Z,10.18
2023-05-19T01:52:20.712Z,10.18
2023-05-19T01:53:20.728Z,10.22
2023-05-19T01:54:20.710Z,10.22
2023-05-19T01:55:20.670Z,10.23
2023-05-19T01:56:20.671Z,10.26
2023-05-19T01:57:20.652Z,10.23
2023-05-19T01:58:20.654Z,10.26
2023-05-19T01:59:20.641Z,10.25
2023-05-19T02:00:21.460Z,10.26
2023-05-19T02:01:20.644Z,10.26
2023-05-19T02:02:20.622Z,10.25
2023-05-19T02:03:20.586Z,10.23
2023-05-19T02:04:20.630Z,10.23
2023-05-19T02:05:20.570Z,10.22
2023-05-19T02:06:20.578Z,10.22
2023-05-19T02:07:20.566Z,10.20
2023-05-19T02:08:20.547Z,10.18
2023-05-19T02:09:20.521Z,10.20
2023-05-19T02:10:20.552Z,10.23
2023-05-19T02:11:20.515Z,10.23
2023-05-19T02:12:20.514Z,10.20
2023-05-19T02:13:20.498Z,10.22
2023-05-19T02:14:20.482Z,10.20
2023-05-19T02:15:20.465Z,10.18
2023-05-19T02:16:20.599Z,10.18
2023-05-19T02:17:20.478Z,10.18
2023-05-19T02:18:20.453Z,10.20
2023-05-19T02:19:20.522Z,10.15
2023-05-19T02:20:20.421Z,10.15
2023-05-19T02:21:20.404Z,10.17
2023-05-19T02:22:20.399Z,10.14
2023-05-19T02:23:20.379Z,10.12
2023-05-19T02:24:20.374Z,10.11
2023-05-19T02:25:20.356Z,10.08
2023-05-19T02:26:20.363Z,10.05
2023-05-19T02:27:20.338Z,10.05
2023-05-19T02:28:20.341Z,10.04
2023-05-19T02:29:20.329Z,10.01
2023-05-19T02:30:20.314Z,9.99
2023-05-19T02:31:20.311Z,9.94
2023-05-19T02:32:21.112Z,9.93
2023-05-19T02:33:20.451Z,9.93
2023-05-19T02:34:20.289Z,9.91
2023-05-19T02:35:20.263Z,9.90
2023-05-19T02:36:20.291Z,9.86
2023-05-19T02:37:20.256Z,9.86
2023-05-19T02:38:20.242Z,9.83
2023-05-19T02:39:20.206Z,9.81
2023-05-19T02:40:20.235Z,9.83
2023-05-19T02:41:20.197Z,9.79
2023-05-19T02:42:20.192Z,9.78
2023-05-19T02:43:20.180Z,9.84
2023-05-19T02:44:20.208Z,9.83
2023-05-19T02:45:20.173Z,9.81
2023-05-19T02:46:20.188Z,9.79
2023-05-19T02:47:20.152Z,9.78
2023-05-19T02:48:20.139Z,9.79
2023-05-19T02:49:20.108Z,9.79
2023-05-19T02:50:20.111Z,9.78
2023-05-19T02:51:20.093Z,9.79
2023-05-19T02:52:20.095Z,9.79
2023-05-19T02:53:20.061Z,9.76
2023-05-19T02:54:20.073Z,9.81
2023-05-19T02:55:20.044Z,9.78
2023-05-19T02:56:20.064Z,9.78
2023-05-19T02:57:20.059Z,9.81
2023-05-19T02:58:20.031Z,9.79
2023-05-19T02:59:19.999Z,9.81
2023-05-19T03:00:20.004Z,9.78
2023-05-19T03:01:19.998Z,9.78
2023-05-19T03:02:20.023Z,9.75
2023-05-19T03:03:20.084Z,9.74
2023-05-19T03:04:19.954Z,9.74
2023-05-19T03:05:19.936Z,9.72
2023-05-19T03:06:19.946Z,9.71
2023-05-19T03:07:19.916Z,9.68
2023-05-19T03:08:19.915Z,9.71
2023-05-19T03:09:19.899Z,9.65
2023-05-19T03:10:19.895Z,9.68
2023-05-19T03:11:19.889Z,9.68
2023-05-19T03:12:19.871Z,9.65
2023-05-19T03:13:19.856Z,9.65
2023-05-19T03:14:19.852Z,9.64
2023-05-19T03:15:19.844Z,9.64
2023-05-19T03:16:19.893Z,9.65
2023-05-19T03:17:19.882Z,9.64
2023-05-19T03:18:19.861Z,9.64
2023-05-19T03:19:19.873Z,9.64
2023-05-19T03:20:19.792Z,9.65
2023-05-19T03:21:19.776Z,9.66
2023-05-19T03:22:19.772Z,9.65
2023-05-19T03:23:19.750Z,9.72
2023-05-19T03:24:19.749Z,9.72
2023-05-19T03:25:19.750Z,9.72
2023-05-19T03:26:19.737Z,9.76
2023-05-19T03:27:19.721Z,9.76
2023-05-19T03:28:19.714Z,9.79
2023-05-19T03:29:19.688Z,9.79
2023-05-19T03:30:19.692Z,9.76
2023-05-19T03:31:19.670Z,9.79
2023-05-19T03:32:19.756Z,9.79
2023-05-19T03:33:19.807Z,9.78
2023-05-19T03:34:19.646Z,9.78
2023-05-19T03:35:19.632Z,9.76
2023-05-19T03:36:19.637Z,9.74
2023-05-19T03:37:19.610Z,9.74
2023-05-19T03:38:19.618Z,9.75
2023-05-19T03:39:19.589Z,9.74
2023-05-19T03:40:19.585Z,9.74
2023-05-19T03:41:19.593Z,9.71
2023-05-19T03:42:19.584Z,9.72
2023-05-19T03:43:19.548Z,9.66
2023-05-19T03:44:19.545Z,9.65
2023-05-19T03:45:19.527Z,9.65
2023-05-19T03:46:19.648Z,9.64
2023-05-19T03:47:19.509Z,9.61
2023-05-19T03:48:21.158Z,9.58
2023-05-19T03:49:19.483Z,9.56
2023-05-19T03:50:19.489Z,9.53
2023-05-19T03:51:19.468Z,9.51
2023-05-19T03:52:19.808Z,9.53
2023-05-19T03:53:19.457Z,9.48
2023-05-19T03:54:19.448Z,9.48
2023-05-19T03:55:19.418Z,9.46
2023-05-19T03:56:19.473Z,9.42
2023-05-19T03:57:19.392Z,9.42
2023-05-19T03:58:19.393Z,9.43
2023-05-19T03:59:19.372Z,9.42
2023-05-19T04:00:19.383Z,9.42
2023-05-19T04:01:19.358Z,9.40
2023-05-19T04:02:19.489Z,9.42
2023-05-19T04:03:19.512Z,9.39
2023-05-19T04:04:19.378Z,9.43
2023-05-19T04:05:20.122Z,9.46
2023-05-19T04:06:19.310Z,9.47
2023-05-19T04:07:19.294Z,9.47
2023-05-19T04:08:19.294Z,9.48
2023-05-19T04:09:19.265Z,9.50
2023-05-19T04:10:19.272Z,9.51
2023-05-19T04:11:19.254Z,9.53
2023-05-19T04:12:20.044Z,9.57
2023-05-19T04:13:19.243Z,9.57
2023-05-19T04:14:19.244Z,9.57
2023-05-19T04:15:19.212Z,9.60
2023-05-19T04:16:19.256Z,9.68
2023-05-19T04:17:19.193Z,9.68
2023-05-19T04:18:19.180Z,9.74
2023-05-19T04:19:19.278Z,9.74
2023-05-19T04:20:19.158Z,9.75
2023-05-19T04:21:19.859Z,9.74
2023-05-19T04:22:19.129Z,9.74
2023-05-19T04:23:19.134Z,9.76
2023-05-19T04:24:19.123Z,9.72
2023-05-19T04:25:19.126Z,9.75
2023-05-19T04:26:19.098Z,9.75
2023-05-19T04:27:19.094Z,9.78
2023-05-19T04:28:19.082Z,9.76
2023-05-19T04:29:19.077Z,9.78
2023-05-19T04:30:19.062Z,9.76
2023-05-19T04:31:19.113Z,9.78
2023-05-19T04:32:19.050Z,9.76
2023-05-19T04:33:19.030Z,9.81
2023-05-19T04:34:19.011Z,9.79
2023-05-19T04:35:19.008Z,9.81
2023-05-19T04:36:18.988Z,9.84
2023-05-19T04:37:19.004Z,9.83
2023-05-19T04:38:19.065Z,9.83
2023-05-19T04:39:18.971Z,9.83
2023-05-19T04:40:18.948Z,9.84
2023-05-19T04:41:18.952Z,9.86
2023-05-19T04:42:18.939Z,9.90
2023-05-19T04:43:18.923Z,9.89
2023-05-19T04:44:18.903Z,9.90
2023-05-19T04:45:18.913Z,9.91
2023-05-19T04:46:18.901Z,9.91
2023-05-19T04:47:18.890Z,9.91
2023-05-19T04:48:18.875Z,9.89
2023-05-19T04:49:18.877Z,9.93
2023-05-19T04:50:18.846Z,9.90
2023-05-19T04:51:18.842Z,9.91
2023-05-19T04:52:18.825Z,9.90
2023-05-19T04:53:18.845Z,9.91
2023-05-19T04:54:18.815Z,9.90
2023-05-19T04:55:18.819Z,9.94
2023-05-19T04:56:18.784Z,9.89
2023-05-19T04:57:18.785Z,9.91
2023-05-19T04:58:18.763Z,9.89
2023-05-19T04:59:18.760Z,9.94
2023-05-19T05:00:18.753Z,9.96
2023-05-19T05:01:18.824Z,9.94
2023-05-19T05:02:18.759Z,10.01
2023-05-19T05:03:18.798Z,9.97
2023-05-19T05:04:18.696Z,10.02
2023-05-19T05:05:18.709Z,10.01
2023-05-19T05:06:19.267Z,10.04
2023-05-19T05:07:18.686Z,10.05
2023-05-19T05:08:18.664Z,10.05
2023-05-19T05:09:18.656Z,10.07
2023-05-19T05:10:18.643Z,10.07
2023-05-19T05:11:18.668Z,10.09
2023-05-19T05:12:18.687Z,10.12
2023-05-19T05:13:18.615Z,10.11
2023-05-19T05:14:18.588Z,10.11
2023-05-19T05:15:18.603Z,10.15
2023-05-19T05:16:18.644Z,10.18
2023-05-19T05:17:18.569Z,10.20
2023-05-19T05:18:18.552Z,10.23
2023-05-19T05:19:18.642Z,10.25
2023-05-19T05:20:18.537Z,10.26
2023-05-19T05:21:18.523Z,10.27
2023-05-19T05:22:18.508Z,10.32
2023-05-19T05:23:18.507Z,10.34
2023-05-19T05:24:18.486Z,10.36
2023-05-19T05:25:18.490Z,10.38
2023-05-19T05:26:18.455Z,10.38
2023-05-19T05:27:18.457Z,10.42
2023-05-19T05:28:18.452Z,10.47
2023-05-19T05:29:18.444Z,10.48
2023-05-19T05:30:18.415Z,10.51
2023-05-19T05:31:18.435Z,10.55
2023-05-19T05:32:18.441Z,10.56
2023-05-19T05:33:18.585Z,10.59
2023-05-19T05:34:18.461Z,10.60
2023-05-19T05:35:18.366Z,10.66
2023-05-19T05:36:18.352Z,10.64
2023-05-19T05:37:18.368Z,10.67
2023-05-19T05:38:18.333Z,10.71
2023-05-19T05:39:18.339Z,10.74
2023-05-19T05:40:18.309Z,10.78
2023-05-19T05:41:18.321Z,10.81
2023-05-19T05:42:18.310Z,10.82
2023-05-19T05:43:18.286Z,10.84
2023-05-19T05:44:18.274Z,10.85
2023-05-19T05:45:18.269Z,10.84
2023-05-19T05:46:18.273Z,10.92
2023-05-19T05:47:18.278Z,10.94
2023-05-19T05:48:18.232Z,11.00
2023-05-19T05:49:18.225Z,11.02
2023-05-19T05:50:18.227Z,11.06
2023-05-19T05:51:18.249Z,11.10
2023-05-19T05:52:18.193Z,11.10
2023-05-19T05:53:18.204Z,11.15
2023-05-19T05:54:18.178Z,11.17
2023-05-19T05:55:18.194Z,11.22
2023-05-19T05:56:18.233Z,11.24
2023-05-19T05:57:18.167Z,11.32
2023-05-19T05:58:18.157Z,11.29
2023-05-19T05:59:18.155Z,11.32
2023-05-19T06:00:18.105Z,11.35
2023-05-19T06:01:18.126Z,11.35
2023-05-19T06:02:18.157Z,11.39
2023-05-19T06:03:18.275Z,11.47
2023-05-19T06:04:18.114Z,11.54
2023-05-19T06:05:18.105Z,11.58
2023-05-19T06:06:18.055Z,11.61
2023-05-19T06:07:18.047Z,11.57
2023-05-19T06:08:18.035Z,11.61
2023-05-19T06:09:18.022Z,11.62
2023-05-19T06:10:18.041Z,11.67
2023-05-19T06:11:18.001Z,11.72
2023-05-19T06:12:18.026Z,11.76
2023-05-19T06:13:18.041Z,11.80
2023-05-19T06:14:18.030Z,11.85
2023-05-19T06:15:17.968Z,11.90
2023-05-19T06:16:17.962Z,11.95
2023-05-19T06:17:17.972Z,11.98
2023-05-19T06:18:17.945Z,12.02
2023-05-19T06:19:18.886Z,12.05
2023-05-19T06:20:17.904Z,12.12
2023-05-19T06:21:17.906Z,12.16
2023-05-19T06:22:17.911Z,12.16
2023-05-19T06:23:17.891Z,12.13
2023-05-19T06:24:17.879Z,12.14
2023-05-19T06:25:17.870Z,12.09
2023-05-19T06:26:17.966Z,12.10
2023-05-19T06:27:18.652Z,12.13
2023-05-19T06:28:17.827Z,12.14
2023-05-19T06:29:17.818Z,12.21
2023-05-19T06:30:17.860Z,12.28
2023-05-19T06:31:17.829Z,12.31
2023-05-19T06:32:17.773Z,12.28
2023-05-19T06:33:17.783Z,12.27
2023-05-19T06:34:17.806Z,12.23
2023-05-19T06:35:17.753Z,12.23
2023-05-19T06:36:17.752Z,12.28
2023-05-19T06:37:17.731Z,12.34
2023-05-19T06:38:17.712Z,12.38
2023-05-19T06:39:17.717Z,12.47
2023-05-19T06:40:17.706Z,12.52
2023-05-19T06:41:17.727Z,12.57
2023-05-19T06:42:17.675Z,12.60
2023-05-19T06:43:17.672Z,12.56
2023-05-19T06:44:19.818Z,12.49
2023-05-19T06:45:17.645Z,12.53
2023-05-19T06:46:17.714Z,12.50
2023-05-19T06:47:17.702Z,12.57
2023-05-19T06:48:17.663Z,12.65
2023-05-19T06:49:17.614Z,12.71
2023-05-19T06:50:17.581Z,12.86
2023-05-19T06:51:17.592Z,12.95
2023-05-19T06:52:17.569Z,13.03
2023-05-19T06:53:17.572Z,13.10
2023-05-19T06:54:17.573Z,13.08
2023-05-19T06:55:17.539Z,13.01
2023-05-19T06:56:17.516Z,13.03
2023-05-19T06:57:17.530Z,13.04
2023-05-19T06:58:17.501Z,13.01
2023-05-19T06:59:17.497Z,13.03
2023-05-19T07:00:18.781Z,12.93
2023-05-19T07:01:17.526Z,12.92
2023-05-19T07:02:17.494Z,12.97
2023-05-19T07:03:17.534Z,13.03
2023-05-19T07:04:17.439Z,13.03
2023-05-19T07:05:17.437Z,13.00
2023-05-19T07:06:17.416Z,12.95
2023-05-19T07:07:17.416Z,12.92
2023-05-19T07:08:17.400Z,12.97
2023-05-19T07:09:17.396Z,13.10
2023-05-19T07:10:17.374Z,13.14
2023-05-19T07:11:17.370Z,13.19
2023-05-19T07:12:17.345Z,13.17
2023-05-19T07:13:17.666Z,13.08
2023-05-19T07:14:18.140Z,13.01
2023-05-19T07:15:17.325Z,13.03
2023-05-19T07:16:17.309Z,12.96
2023-05-19T07:17:17.326Z,13.00
2023-05-19T07:18:17.413Z,13.01
2023-05-19T07:19:17.348Z,12.90
2023-05-19T07:20:17.277Z,12.97
2023-05-19T07:21:17.254Z,13.07
2023-05-19T07:22:17.248Z,13.10
2023-05-19T07:23:17.553Z,13.22
2023-05-19T07:24:17.231Z,13.32
2023-05-19T07:25:17.219Z,13.39
2023-05-19T07:26:17.194Z,13.52
2023-05-19T07:27:17.429Z,13.55
2023-05-19T07:28:17.184Z,13.60
2023-05-19T07:29:17.176Z,13.54
2023-05-19T07:30:17.160Z,13.38
2023-05-19T07:31:17.161Z,13.29
2023-05-19T07:32:17.188Z,13.29
2023-05-19T07:33:17.165Z,13.28
2023-05-19T07:34:17.113Z,13.33
2023-05-19T07:35:17.110Z,13.38
2023-05-19T07:36:17.884Z,13.51
2023-05-19T07:37:17.097Z,13.62
2023-05-19T07:38:17.095Z,13.64
2023-05-19T07:39:17.117Z,13.70
2023-05-19T07:40:17.059Z,13.79
2023-05-19T07:41:17.054Z,13.87
2023-05-19T07:42:17.030Z,13.91
2023-05-19T07:43:17.023Z,13.97
2023-05-19T07:44:17.016Z,13.96
2023-05-19T07:45:17.006Z,13.99
2023-05-19T07:46:17.166Z,13.97
2023-05-19T07:47:16.982Z,13.88
2023-05-19T07:48:17.052Z,13.84
2023-05-19T07:49:16.965Z,13.91
2023-05-19T07:50:16.978Z,13.96
2023-05-19T07:51:16.940Z,13.91
2023-05-19T07:52:16.917Z,13.75
2023-05-19T07:53:16.939Z,13.62
2023-05-19T07:54:16.916Z,13.60
2023-05-19T07:55:17.706Z,13.63
2023-05-19T07:56:16.885Z,13.49
2023-05-19T07:57:16.888Z,13.48
2023-05-19T07:58:16.853Z,13.48
2023-05-19T07:59:16.929Z,13.48
2023-05-19T08:00:16.848Z,13.46
2023-05-19T08:01:16.841Z,13.39
2023-05-19T08:02:16.945Z,13.32
2023-05-19T08:03:17.030Z,13.29
2023-05-19T08:04:16.880Z,13.32
2023-05-19T08:05:16.813Z,13.38
2023-05-19T08:06:16.773Z,13.44
2023-05-19T08:07:17.600Z,13.46
2023-05-19T08:08:16.885Z,13.59
2023-05-19T08:09:16.768Z,13.57
2023-05-19T08:10:16.745Z,13.63
2023-05-19T08:11:16.898Z,13.66
2023-05-19T08:12:16.751Z,13.66
2023-05-19T08:13:16.744Z,13.77
2023-05-19T08:14:17.542Z,13.85
2023-05-19T08:15:16.727Z,13.92
2023-05-19T08:16:16.832Z,14.02
2023-05-19T08:17:16.675Z,14.14
2023-05-19T08:18:16.730Z,14.14
2023-05-19T08:19:16.800Z,14.18
2023-05-19T08:20:16.638Z,14.27
2023-05-19T08:21:16.640Z,14.25
2023-05-19T08:22:17.420Z,14.22
2023-05-19T08:23:16.634Z,14.15
2023-05-19T08:24:16.600Z,14.15
2023-05-19T08:25:16.599Z,14.17
2023-05-19T08:26:16.852Z,14.20
2023-05-19T08:27:16.583Z,14.18
2023-05-19T08:28:16.593Z,14.21
2023-05-19T08:29:16.553Z,14.28
2023-05-19T08:30:16.754Z,14.21
2023-05-19T08:31:16.588Z,14.14
2023-05-19T08:32:16.524Z,14.17
2023-05-19T08:33:16.508Z,14.03
2023-05-19T08:34:16.497Z,14.04
2023-05-19T08:35:16.489Z,14.03
2023-05-19T08:36:16.477Z,14.03
2023-05-19T08:37:16.454Z,14.06
2023-05-19T08:38:16.460Z,14.04
2023-05-19T08:39:16.441Z,14.04
2023-05-19T08:40:16.456Z,14.09
2023-05-19T08:41:16.422Z,14.24
2023-05-19T08:42:16.440Z,14.28
2023-05-19T08:43:16.389Z,14.45
2023-05-19T08:44:18.214Z,14.57
2023-05-19T08:45:16.367Z,14.73
2023-05-19T08:46:16.478Z,14.88
2023-05-19T08:47:16.353Z,14.88
2023-05-19T08:48:16.364Z,14.86
2023-05-19T08:49:16.339Z,14.86
2023-05-19T08:50:16.338Z,14.99
2023-05-19T08:51:16.304Z,15.10
2023-05-19T08:52:16.302Z,15.27
2023-05-19T08:53:31.863Z,15.34
2023-05-19T08:54:17.299Z,15.28
2023-05-19T08:55:16.275Z,14.92
2023-05-19T08:56:16.274Z,14.78
2023-05-19T08:57:16.286Z,14.92
2023-05-19T08:58:16.244Z,15.19
2023-05-19T08:59:16.226Z,15.32
2023-05-19T09:00:16.220Z,15.46
2023-05-19T09:01:16.235Z,15.64
2023-05-19T09:02:16.512Z,15.60
2023-05-19T09:03:22.708Z,15.59
2023-05-19T09:04:17.397Z,15.72
2023-05-19T09:05:16.201Z,16.04
2023-05-19T09:06:16.154Z,16.25
2023-05-19T09:07:16.134Z,16.35
2023-05-19T09:08:16.163Z,16.25
2023-05-19T09:09:16.129Z,16.20
2023-05-19T09:10:16.104Z,16.11
2023-05-19T09:11:16.099Z,15.97
2023-05-19T09:12:16.105Z,15.87
2023-05-19T09:13:16.077Z,15.82
2023-05-19T09:14:16.070Z,16.01
2023-05-19T09:15:16.046Z,16.11
2023-05-19T09:16:16.114Z,16.05
2023-05-19T09:17:16.026Z,16.14
2023-05-19T09:18:16.028Z,16.05
2023-05-19T09:19:16.074Z,15.96
2023-05-19T09:20:16.008Z,16.07
2023-05-19T09:21:15.989Z,16.31
2023-05-19T09:22:15.985Z,16.45
2023-05-19T09:23:16.366Z,16.66
2023-05-19T09:24:16.046Z,16.97
2023-05-19T09:25:15.944Z,17.14
2023-05-19T09:26:15.955Z,17.25
2023-05-19T09:27:15.930Z,17.11
2023-05-19T09:28:15.932Z,16.58
2023-05-19T09:29:15.917Z,16.12
2023-05-19T09:30:15.896Z,15.78
2023-05-19T09:31:16.001Z,15.78
2023-05-19T09:32:15.962Z,15.75
2023-05-19T09:33:15.874Z,15.69
2023-05-19T09:34:15.850Z,15.62
2023-05-19T09:35:15.838Z,15.71
2023-05-19T09:36:15.839Z,15.75
2023-05-19T09:37:15.827Z,15.93
2023-05-19T09:38:15.811Z,16.05
2023-05-19T09:39:15.792Z,16.02
2023-05-19T09:40:16.057Z,15.96
2023-05-19T09:41:15.775Z,15.94
2023-05-19T09:42:15.778Z,16.00
2023-05-19T09:43:15.749Z,15.89
2023-05-19T09:44:15.754Z,15.92
2023-05-19T09:45:15.737Z,15.86
2023-05-19T09:46:15.778Z,15.94
2023-05-19T09:47:15.701Z,15.97
2023-05-19T09:48:15.700Z,15.89
2023-05-19T09:49:15.693Z,15.89
2023-05-19T09:50:15.684Z,16.05
2023-05-19T09:51:15.667Z,16.12
2023-05-19T09:52:15.664Z,16.23
2023-05-19T09:53:15.644Z,16.17
2023-05-19T09:54:15.637Z,16.12
2023-05-19T09:55:15.617Z,15.94
2023-05-19T09:56:15.646Z,15.71
2023-05-19T09:57:15.614Z,15.62
2023-05-19T09:58:15.606Z,15.57
2023-05-19T09:59:15.578Z,15.67
2023-05-19T10:00:15.585Z,15.74
2023-05-19T10:01:15.594Z,15.69
2023-05-19T10:02:15.581Z,15.67
2023-05-19T10:03:15.640Z,15.68
2023-05-19T10:04:15.539Z,15.71
2023-05-19T10:05:15.628Z,15.78
2023-05-19T10:06:15.518Z,15.84
2023-05-19T10:07:15.509Z,15.90
2023-05-19T10:08:15.499Z,15.94
2023-05-19T10:09:15.479Z,15.97
2023-05-19T10:10:15.482Z,15.96
2023-05-19T10:11:15.449Z,15.86
2023-05-19T10:12:15.458Z,15.72
2023-05-19T10:13:15.447Z,15.72
2023-05-19T10:14:15.427Z,15.80
2023-05-19T10:15:15.416Z,15.86
2023-05-19T10:16:15.435Z,15.96
2023-05-19T10:17:15.388Z,16.02
2023-05-19T10:18:15.409Z,16.04
2023-05-19T10:19:15.377Z,15.90
2023-05-19T10:20:15.390Z,15.86
2023-05-19T10:21:15.350Z,16.01
2023-05-19T10:22:15.349Z,16.11
2023-05-19T10:23:15.331Z,16.28
2023-05-19T10:24:15.319Z,16.31
2023-05-19T10:25:15.399Z,16.33
2023-05-19T10:26:15.313Z,16.30
2023-05-19T10:27:15.278Z,16.31
2023-05-19T10:28:15.285Z,16.25
2023-05-19T10:29:15.259Z,16.20
2023-05-19T10:30:16.424Z,16.14
2023-05-19T10:31:15.248Z,16.28
2023-05-19T10:32:15.286Z,16.34
2023-05-19T10:33:15.259Z,16.14
2023-05-19T10:34:15.225Z,16.09
2023-05-19T10:35:15.207Z,16.12
2023-05-19T10:36:15.207Z,16.23
2023-05-19T10:37:15.173Z,16.43
2023-05-19T10:38:15.184Z,16.57
2023-05-19T10:39:15.154Z,16.49
2023-05-19T10:40:15.191Z,16.30
2023-05-19T10:41:15.130Z,16.25
2023-05-19T10:42:15.138Z,16.38
2023-05-19T10:43:15.108Z,16.46
2023-05-19T10:44:15.110Z,16.60
2023-05-19T10:45:15.096Z,16.48
2023-05-19T10:46:15.142Z,16.46
2023-05-19T10:47:15.125Z,16.57
2023-05-19T10:48:15.145Z,16.48
2023-05-19T10:49:15.051Z,16.24
2023-05-19T10:50:15.091Z,16.09
2023-05-19T10:51:15.038Z,16.04
2023-05-19T10:52:15.027Z,16.17
2023-05-19T10:53:15.398Z,16.12
2023-05-19T10:54:15.721Z,16.11
2023-05-19T10:55:14.992Z,16.11
2023-05-19T10:56:14.992Z,15.94
2023-05-19T10:57:14.997Z,15.78
2023-05-19T10:58:15.788Z,15.65
2023-05-19T10:59:14.945Z,15.44
2023-05-19T11:00:15.053Z,15.35
2023-05-19T11:01:14.996Z,15.36
2023-05-19T11:02:15.849Z,15.36
2023-05-19T11:03:14.983Z,15.32
2023-05-19T11:04:14.932Z,15.16
2023-05-19T11:05:15.094Z,15.10
2023-05-19T11:06:14.901Z,15.14
2023-05-19T11:07:14.868Z,15.02
2023-05-19T11:08:14.861Z,15.07
2023-05-19T11:09:14.857Z,15.01
2023-05-19T11:10:14.970Z,15.02
2023-05-19T11:11:14.835Z,15.09
2023-05-19T11:12:14.834Z,15.11
2023-05-19T11:13:14.956Z,15.10
2023-05-19T11:14:14.798Z,15.19
2023-05-19T11:15:14.812Z,15.17
2023-05-19T11:16:14.838Z,15.10
2023-05-19T11:17:14.773Z,14.92
2023-05-19T11:18:14.789Z,14.84
2023-05-19T11:19:14.759Z,14.81
2023-05-19T11:20:14.733Z,14.92
2023-05-19T11:21:14.794Z,14.95
2023-05-19T11:22:14.713Z,15.09
2023-05-19T11:23:14.753Z,15.19
2023-05-19T11:24:14.699Z,15.34
2023-05-19T11:25:14.676Z,15.36
2023-05-19T11:26:14.676Z,15.23
2023-05-19T11:27:14.646Z,15.13
2023-05-19T11:28:14.652Z,15.19
2023-05-19T11:29:14.814Z,15.27
2023-05-19T11:30:14.651Z,15.39
2023-05-19T11:31:14.605Z,15.51
2023-05-19T11:32:14.617Z,15.69
2023-05-19T11:33:14.642Z,15.86
2023-05-19T11:34:15.400Z,15.87
2023-05-19T11:35:15.389Z,15.90
2023-05-19T11:36:14.562Z,15.94
2023-05-19T11:37:14.537Z,16.07
2023-05-19T11:38:14.553Z,16.09
2023-05-19T11:39:14.528Z,16.23
2023-05-19T11:40:14.529Z,16.25
2023-05-19T11:41:14.514Z,16.34
2023-05-19T11:42:14.504Z,16.46
2023-05-19T11:43:14.504Z,16.58
2023-05-19T11:44:14.480Z,16.76
2023-05-19T11:45:14.465Z,16.81
2023-05-19T11:46:14.540Z,16.79
2023-05-19T11:47:14.436Z,16.63
2023-05-19T11:48:14.663Z,16.52
2023-05-19T11:49:14.417Z,16.58
2023-05-19T11:50:14.420Z,16.61
2023-05-19T11:51:14.421Z,16.49
2023-05-19T11:52:14.425Z,16.30
2023-05-19T11:53:14.378Z,16.27
2023-05-19T11:54:14.396Z,16.23
2023-05-19T11:55:14.345Z,16.31
2023-05-19T11:56:14.358Z,16.25
2023-05-19T11:57:14.346Z,16.12
2023-05-19T11:58:14.328Z,16.08
2023-05-19T11:59:14.311Z,16.09
2023-05-19T12:00:14.322Z,16.20
2023-05-19T12:01:14.693Z,16.25
2023-05-19T12:02:14.305Z,16.38
2023-05-19T12:03:14.423Z,16.45
2023-05-19T12:04:14.268Z,16.30
2023-05-19T12:05:14.252Z,16.28
2023-05-19T12:06:14.357Z,16.28
2023-05-19T12:07:14.221Z,16.30
2023-05-19T12:08:14.228Z,16.33
2023-05-19T12:09:14.197Z,16.41
2023-05-19T12:10:14.204Z,16.43
2023-05-19T12:11:14.174Z,16.50
2023-05-19T12:12:14.175Z,16.53
2023-05-19T12:13:14.162Z,16.57
2023-05-19T12:14:14.165Z,16.56
2023-05-19T12:15:14.149Z,16.45
2023-05-19T12:16:14.169Z,16.31
2023-05-19T12:17:14.125Z,16.35
2023-05-19T12:18:14.183Z,16.45
2023-05-19T12:19:14.131Z,16.38
2023-05-19T12:20:14.095Z,16.25
2023-05-19T12:21:14.080Z,16.30
2023-05-19T12:22:14.070Z,16.38
2023-05-19T12:23:14.062Z,16.42
2023-05-19T12:24:14.065Z,16.49
2023-05-19T12:25:14.025Z,16.45
2023-05-19T12:26:14.036Z,16.41
2023-05-19T12:27:14.061Z,16.30
2023-05-19T12:28:14.791Z,16.30
2023-05-19T12:29:13.995Z,16.30
2023-05-19T12:30:14.008Z,16.28
2023-05-19T12:31:13.976Z,16.17
2023-05-19T12:32:14.182Z,16.01
2023-05-19T12:33:13.981Z,16.01
2023-05-19T12:34:13.961Z,16.08
2023-05-19T12:35:13.924Z,16.07
2023-05-19T12:36:13.929Z,16.01
2023-05-19T12:37:13.928Z,15.96
2023-05-19T12:38:13.901Z,15.93
2023-05-19T12:39:13.878Z,15.87
2023-05-19T12:40:13.892Z,15.87
2023-05-19T12:41:13.865Z,15.89
2023-05-19T12:42:13.862Z,15.84
2023-05-19T12:43:13.849Z,15.78
2023-05-19T12:44:13.841Z,15.67
2023-05-19T12:45:13.831Z,15.71
2023-05-19T12:46:13.886Z,15.68
2023-05-19T12:47:13.800Z,15.64
2023-05-19T12:48:13.888Z,15.50
2023-05-19T12:49:13.772Z,15.41
2023-05-19T12:50:13.762Z,15.46
2023-05-19T12:51:13.766Z,15.47
2023-05-19T12:52:13.742Z,15.39
2023-05-19T12:53:13.739Z,15.43
2023-05-19T12:54:13.745Z,15.38
2023-05-19T12:55:13.791Z,15.38
2023-05-19T12:56:13.708Z,15.41
2023-05-19T12:57:13.696Z,15.47